KDAB/DAB METAR and TAF weather

Enter ICAO airport designator
Station Type Date Time Source
KDAB METAR 2020/09/19 02:53 UTC NOAA

KDAB 190253Z 35006KT 10SM FEW033 BKN070 26/22 A2993 RMK AO2 SLP134 T02560222 51018


Station Type Date Time Source
KDAB Decoded METAR 2020/09/19 02:53 UTC NOAA

DAYTONA BEACH INTERNATIONAL, FL, United States (KDAB) 29-10N 81-04W 9M
Sep 18, 2020 - 10:53 PM EDT / 2020.09.19 0253 UTC
Wind: from the N (350 degrees) at 7 MPH (6 KT):0
Visibility: 10 mile(s):0
Sky conditions: mostly cloudy
Temperature: 78.1 F (25.6 C)
Dew Point: 72.0 F (22.2 C)
Relative Humidity: 81%
Pressure (altimeter): 29.93 in. Hg (1013 hPa)
Pressure tendency: 0.05 inches (1.8 hPa) higher than three hours ago
ob: KDAB 190253Z 35006KT 10SM FEW033 BKN070 26/22 A2993 RMK AO2 SLP134 T02560222 51018
cycle: 3

Station Type Date Time Source
KDAB TAF 2020/09/18 18:43 UTC NOAA

TAF KDAB 181735Z 1818/1918 28014KT P6SM FEW020 FEW025 BKN035
FM182100 31012KT P6SM SCT045 SCT250
FM190000 36012KT P6SM SCT050 SCT250
FM190400 03009KT P6SM SCT035 BKN045
FM191500 03012KT P6SM VCSH FEW015 SCT025 BKN035

Example: see airport list